createdAt,value
2022-09-01T00:00:27.528Z,20.25
2022-09-01T00:01:27.523Z,20.14
2022-09-01T00:02:27.564Z,20.07
2022-09-01T00:03:27.513Z,19.99
2022-09-01T00:04:27.570Z,19.96
2022-09-01T00:05:27.509Z,19.96
2022-09-01T00:06:27.507Z,19.89
2022-09-01T00:07:27.502Z,19.79
2022-09-01T00:08:27.493Z,19.79
2022-09-01T00:09:27.490Z,19.77
2022-09-01T00:10:27.489Z,19.70
2022-09-01T00:11:27.484Z,19.67
2022-09-01T00:12:27.480Z,19.68
2022-09-01T00:13:27.477Z,19.72
2022-09-01T00:14:30.170Z,19.82
2022-09-01T00:15:27.504Z,19.72
2022-09-01T00:16:27.462Z,19.78
2022-09-01T00:17:27.460Z,19.75
2022-09-01T00:18:27.455Z,19.78
2022-09-01T00:19:27.451Z,19.74
2022-09-01T00:20:27.452Z,19.74
2022-09-01T00:21:27.448Z,19.64
2022-09-01T00:22:27.437Z,19.68
2022-09-01T00:23:27.441Z,19.72
2022-09-01T00:24:27.426Z,19.68
2022-09-01T00:25:27.433Z,19.72
2022-09-01T00:26:27.421Z,19.68
2022-09-01T00:27:27.977Z,19.54
2022-09-01T00:28:30.276Z,19.57
2022-09-01T00:29:27.410Z,19.57
2022-09-01T00:30:27.409Z,19.56
2022-09-01T00:31:27.462Z,19.64
2022-09-01T00:32:27.402Z,19.63
2022-09-01T00:33:27.398Z,19.56
2022-09-01T00:34:27.399Z,19.57
2022-09-01T00:35:27.405Z,19.54
2022-09-01T00:36:27.386Z,19.57
2022-09-01T00:37:27.377Z,19.56
2022-09-01T00:38:27.386Z,19.52
2022-09-01T00:39:27.371Z,19.52
2022-09-01T00:40:27.431Z,19.49
2022-09-01T00:41:27.370Z,19.52
2022-09-01T00:42:27.364Z,19.57
2022-09-01T00:43:27.358Z,19.45
2022-09-01T00:44:29.666Z,19.47
2022-09-01T00:45:27.348Z,19.41
2022-09-01T00:46:29.011Z,19.37
2022-09-01T00:47:27.336Z,19.35
2022-09-01T00:48:27.339Z,19.27
2022-09-01T00:49:27.328Z,19.32
2022-09-01T00:50:27.328Z,19.41
2022-09-01T00:51:27.323Z,19.34
2022-09-01T00:52:27.326Z,19.39
2022-09-01T00:53:27.305Z,19.41
2022-09-01T00:54:27.311Z,19.41
2022-09-01T00:55:27.305Z,19.31
2022-09-01T00:56:27.301Z,19.34
2022-09-01T00:57:27.295Z,19.31
2022-09-01T00:58:27.290Z,19.31
2022-09-01T00:59:27.450Z,19.24
2022-09-01T01:00:27.284Z,19.35
2022-09-01T01:01:27.314Z,19.34
2022-09-01T01:02:27.335Z,19.26
2022-09-01T01:03:27.267Z,19.27
2022-09-01T01:04:27.268Z,19.32
2022-09-01T01:05:27.262Z,19.31
2022-09-01T01:06:27.258Z,19.30
2022-09-01T01:07:27.261Z,19.23
2022-09-01T01:08:27.250Z,19.20
2022-09-01T01:09:27.241Z,19.22
2022-09-01T01:10:27.236Z,19.23
2022-09-01T01:11:27.239Z,19.23
2022-09-01T01:12:27.234Z,19.22
2022-09-01T01:13:27.228Z,19.26
2022-09-01T01:14:27.219Z,19.20
2022-09-01T01:15:27.219Z,19.16
2022-09-01T01:16:27.283Z,19.15
2022-09-01T01:17:27.210Z,19.13
2022-09-01T01:18:27.198Z,19.15
2022-09-01T01:19:27.201Z,19.01
2022-09-01T01:20:27.194Z,19.04
2022-09-01T01:21:27.191Z,19.01
2022-09-01T01:22:27.184Z,19.07
2022-09-01T01:23:27.181Z,19.04
2022-09-01T01:24:27.179Z,18.97
2022-09-01T01:25:27.171Z,19.07
2022-09-01T01:26:27.165Z,19.01
2022-09-01T01:27:27.162Z,19.00
2022-09-01T01:28:27.164Z,19.05
2022-09-01T01:29:27.153Z,19.01
2022-09-01T01:30:27.151Z,19.08
2022-09-01T01:31:27.146Z,19.07
2022-09-01T01:32:27.136Z,19.01
2022-09-01T01:33:27.133Z,19.04
2022-09-01T01:34:27.127Z,19.05
2022-09-01T01:35:27.122Z,19.05
2022-09-01T01:36:27.134Z,19.00
2022-09-01T01:37:27.123Z,19.05
2022-09-01T01:38:27.121Z,19.08
2022-09-01T01:39:27.107Z,19.16
2022-09-01T01:40:27.145Z,19.16
2022-09-01T01:41:27.107Z,19.16
2022-09-01T01:42:27.093Z,19.13
2022-09-01T01:43:27.087Z,19.20
2022-09-01T01:44:27.088Z,19.19
2022-09-01T01:45:27.085Z,19.23
2022-09-01T01:46:27.129Z,19.22
2022-09-01T01:47:27.075Z,19.17
2022-09-01T01:48:27.072Z,19.27
2022-09-01T01:49:27.068Z,19.34
2022-09-01T01:50:27.058Z,19.30
2022-09-01T01:51:27.052Z,19.32
2022-09-01T01:52:27.049Z,19.34
2022-09-01T01:53:27.041Z,19.30
2022-09-01T01:54:27.037Z,19.31
2022-09-01T01:55:27.039Z,19.24
2022-09-01T01:56:27.032Z,19.27
2022-09-01T01:57:27.029Z,19.15
2022-09-01T01:58:27.025Z,19.19
2022-09-01T01:59:27.018Z,19.19
2022-09-01T02:00:30.160Z,19.19
2022-09-01T02:01:27.046Z,19.20
2022-09-01T02:02:27.047Z,19.23
2022-09-01T02:03:27.000Z,19.22
2022-09-01T02:04:26.999Z,19.17
2022-09-01T02:05:26.993Z,19.12
2022-09-01T02:06:26.989Z,19.13
2022-09-01T02:07:26.985Z,19.15
2022-09-01T02:08:26.979Z,19.01
2022-09-01T02:09:26.966Z,19.07
2022-09-01T02:10:26.967Z,19.01
2022-09-01T02:11:26.967Z,19.05
2022-09-01T02:12:26.960Z,19.05
2022-09-01T02:13:26.956Z,19.15
2022-09-01T02:14:26.952Z,19.07
2022-09-01T02:15:26.948Z,19.16
2022-09-01T02:16:26.967Z,19.17
2022-09-01T02:17:26.946Z,19.16
2022-09-01T02:18:26.965Z,19.13
2022-09-01T02:19:26.929Z,18.96
2022-09-01T02:20:26.924Z,18.89
2022-09-01T02:21:26.919Z,18.93
2022-09-01T02:22:26.915Z,18.82
2022-09-01T02:23:26.916Z,18.86
2022-09-01T02:24:26.903Z,18.85
2022-09-01T02:25:26.902Z,18.94
2022-09-01T02:26:26.894Z,18.97
2022-09-01T02:27:26.893Z,19.01
2022-09-01T02:28:26.888Z,19.01
2022-09-01T02:29:26.883Z,18.91
2022-09-01T02:30:26.924Z,18.98
2022-09-01T02:31:27.657Z,19.04
2022-09-01T02:32:26.872Z,19.07
2022-09-01T02:33:26.866Z,19.07
2022-09-01T02:34:26.859Z,19.07
2022-09-01T02:35:26.855Z,19.13
2022-09-01T02:36:26.851Z,19.00
2022-09-01T02:37:26.846Z,18.91
2022-09-01T02:38:26.851Z,18.94
2022-09-01T02:39:26.841Z,19.04
2022-09-01T02:40:26.914Z,18.97
2022-09-01T02:41:26.827Z,18.93
2022-09-01T02:42:26.833Z,18.97
2022-09-01T02:43:26.818Z,18.93
2022-09-01T02:44:26.817Z,18.83
2022-09-01T02:45:26.812Z,18.68
2022-09-01T02:46:26.804Z,18.74
2022-09-01T02:47:26.799Z,18.70
2022-09-01T02:48:26.799Z,18.75
2022-09-01T02:49:26.793Z,18.82
2022-09-01T02:50:26.791Z,18.78
2022-09-01T02:51:26.793Z,18.66
2022-09-01T02:52:26.783Z,18.75
2022-09-01T02:53:26.781Z,18.71
2022-09-01T02:54:26.783Z,18.64
2022-09-01T02:55:26.771Z,18.54
2022-09-01T02:56:26.762Z,18.57
2022-09-01T02:57:26.760Z,18.51
2022-09-01T02:58:26.754Z,18.52
2022-09-01T02:59:26.749Z,18.52
2022-09-01T03:00:26.757Z,18.51
2022-09-01T03:01:26.823Z,18.49
2022-09-01T03:02:26.744Z,18.46
2022-09-01T03:03:26.732Z,18.41
2022-09-01T03:04:26.787Z,18.36
2022-09-01T03:05:26.720Z,18.41
2022-09-01T03:06:26.725Z,18.33
2022-09-01T03:07:26.712Z,18.26
2022-09-01T03:08:26.705Z,18.30
2022-09-01T03:09:26.708Z,18.36
2022-09-01T03:10:26.697Z,18.38
2022-09-01T03:11:26.691Z,18.30
2022-09-01T03:12:26.694Z,18.27
2022-09-01T03:13:26.681Z,18.20
2022-09-01T03:14:26.674Z,18.28
2022-09-01T03:15:26.675Z,18.30
2022-09-01T03:16:26.698Z,18.34
2022-09-01T03:17:26.661Z,18.27
2022-09-01T03:18:26.661Z,18.28
2022-09-01T03:19:26.656Z,18.30
2022-09-01T03:20:26.654Z,18.24
2022-09-01T03:21:26.645Z,18.27
2022-09-01T03:22:26.640Z,18.23
2022-09-01T03:23:26.636Z,18.12
2022-09-01T03:24:26.632Z,18.06
2022-09-01T03:25:26.623Z,18.09
2022-09-01T03:26:26.616Z,18.09
2022-09-01T03:27:26.617Z,18.15
2022-09-01T03:28:26.604Z,18.33
2022-09-01T03:29:26.605Z,18.30
2022-09-01T03:30:26.602Z,18.42
2022-09-01T03:31:26.657Z,18.31
2022-09-01T03:32:26.586Z,18.38
2022-09-01T03:33:26.581Z,18.31
2022-09-01T03:34:26.592Z,18.26
2022-09-01T03:35:26.576Z,18.13
2022-09-01T03:36:26.581Z,18.05
2022-09-01T03:37:26.562Z,18.01
2022-09-01T03:38:26.590Z,18.09
2022-09-01T03:39:26.561Z,18.05
2022-09-01T03:40:26.596Z,18.06
2022-09-01T03:41:26.547Z,17.99
2022-09-01T03:42:26.538Z,18.03
2022-09-01T03:43:26.527Z,18.06
2022-09-01T03:44:26.529Z,18.03
2022-09-01T03:45:26.563Z,17.99
2022-09-01T03:46:26.515Z,17.91
2022-09-01T03:47:26.512Z,17.76
2022-09-01T03:48:26.512Z,17.83
2022-09-01T03:49:26.502Z,17.76
2022-09-01T03:50:26.496Z,17.68
2022-09-01T03:51:26.494Z,17.69
2022-09-01T03:52:26.488Z,17.66
2022-09-01T03:53:26.480Z,17.57
2022-09-01T03:54:26.476Z,17.62
2022-09-01T03:55:26.471Z,17.68
2022-09-01T03:56:26.468Z,17.68
2022-09-01T03:57:26.462Z,17.65
2022-09-01T03:58:26.454Z,17.66
2022-09-01T03:59:26.454Z,17.84
2022-09-01T04:00:26.446Z,17.76
2022-09-01T04:01:26.493Z,17.72
2022-09-01T04:02:26.483Z,17.86
2022-09-01T04:03:28.971Z,17.87
2022-09-01T04:04:26.428Z,17.83
2022-09-01T04:05:26.422Z,17.81
2022-09-01T04:06:26.416Z,17.78
2022-09-01T04:07:26.416Z,17.79
2022-09-01T04:08:26.400Z,17.83
2022-09-01T04:09:26.402Z,17.66
2022-09-01T04:10:26.401Z,17.68
2022-09-01T04:11:26.395Z,17.66
2022-09-01T04:12:26.388Z,17.65
2022-09-01T04:13:26.377Z,17.50
2022-09-01T04:14:26.374Z,17.50
2022-09-01T04:15:26.372Z,17.45
2022-09-01T04:16:26.425Z,17.45
2022-09-01T04:17:30.323Z,17.43
2022-09-01T04:18:26.357Z,17.52
2022-09-01T04:19:26.409Z,17.46
2022-09-01T04:20:26.348Z,17.50
2022-09-01T04:21:26.339Z,17.47
2022-09-01T04:22:26.337Z,17.54
2022-09-01T04:23:26.342Z,17.52
2022-09-01T04:24:26.325Z,17.54
2022-09-01T04:25:26.324Z,17.50
2022-09-01T04:26:26.313Z,17.46
2022-09-01T04:27:26.313Z,17.56
2022-09-01T04:28:26.300Z,17.56
2022-09-01T04:29:26.307Z,17.50
2022-09-01T04:30:26.293Z,17.45
2022-09-01T04:31:26.330Z,17.37
2022-09-01T04:32:26.282Z,17.34
2022-09-01T04:33:26.278Z,17.34
2022-09-01T04:34:26.272Z,17.28
2022-09-01T04:35:26.270Z,17.27
2022-09-01T04:36:26.256Z,17.17
2022-09-01T04:37:26.261Z,17.20
2022-09-01T04:38:26.253Z,17.06
2022-09-01T04:39:26.247Z,17.12
2022-09-01T04:40:26.265Z,17.19
2022-09-01T04:41:26.232Z,17.30
2022-09-01T04:42:26.228Z,17.31
2022-09-01T04:43:26.228Z,17.31
2022-09-01T04:44:26.218Z,17.31
2022-09-01T04:45:26.272Z,17.31
2022-09-01T04:46:26.203Z,17.34
2022-09-01T04:47:26.204Z,17.41
2022-09-01T04:48:26.203Z,17.32
2022-09-01T04:49:26.194Z,17.31
2022-09-01T04:50:26.190Z,17.32
2022-09-01T04:51:26.185Z,17.24
2022-09-01T04:52:26.179Z,17.32
2022-09-01T04:53:28.542Z,17.25
2022-09-01T04:54:26.174Z,17.31
2022-09-01T04:55:26.164Z,17.19
2022-09-01T04:56:26.161Z,17.10
2022-09-01T04:57:26.149Z,16.95
2022-09-01T04:58:26.149Z,17.01
2022-09-01T04:59:26.141Z,16.98
2022-09-01T05:00:26.138Z,17.04
2022-09-01T05:01:26.175Z,17.06
2022-09-01T05:02:26.153Z,17.06
2022-09-01T05:03:26.121Z,17.01
2022-09-01T05:04:26.119Z,16.99
2022-09-01T05:05:26.109Z,16.99
2022-09-01T05:06:26.106Z,17.02
2022-09-01T05:07:26.111Z,16.97
2022-09-01T05:08:26.163Z,17.04
2022-09-01T05:09:26.086Z,17.06
2022-09-01T05:10:26.087Z,17.06
2022-09-01T05:11:26.079Z,17.10
2022-09-01T05:12:26.076Z,17.12
2022-09-01T05:13:26.063Z,17.07
2022-09-01T05:14:26.064Z,17.09
2022-09-01T05:15:26.054Z,17.10
2022-09-01T05:16:26.088Z,17.09
2022-09-01T05:17:26.058Z,17.09
2022-09-01T05:18:26.044Z,17.12
2022-09-01T05:19:26.033Z,16.99
2022-09-01T05:20:26.029Z,16.98
2022-09-01T05:21:26.021Z,16.83
2022-09-01T05:22:26.021Z,16.83
2022-09-01T05:23:26.027Z,16.72
2022-09-01T05:24:26.008Z,16.88
2022-09-01T05:25:26.002Z,16.84
2022-09-01T05:26:25.997Z,16.82
2022-09-01T05:27:25.992Z,16.76
2022-09-01T05:28:25.993Z,16.82
2022-09-01T05:29:25.981Z,16.84
2022-09-01T05:30:25.977Z,16.79
2022-09-01T05:31:26.021Z,16.74
2022-09-01T05:32:26.026Z,16.79
2022-09-01T05:33:25.958Z,16.76
2022-09-01T05:34:25.960Z,16.69
2022-09-01T05:35:31.694Z,16.69
2022-09-01T05:36:25.947Z,16.87
2022-09-01T05:37:25.943Z,16.91
2022-09-01T05:38:25.938Z,16.87
2022-09-01T05:39:25.927Z,16.88
2022-09-01T05:40:25.944Z,16.84
2022-09-01T05:41:25.978Z,16.92
2022-09-01T05:42:25.910Z,16.97
2022-09-01T05:43:25.908Z,16.98
2022-09-01T05:44:25.903Z,16.98
2022-09-01T05:45:25.921Z,16.98
2022-09-01T05:46:25.927Z,16.98
2022-09-01T05:47:25.886Z,17.04
2022-09-01T05:48:25.880Z,17.07
2022-09-01T05:49:25.894Z,17.09
2022-09-01T05:50:25.866Z,17.02
2022-09-01T05:51:43.292Z,17.10
2022-09-01T05:52:25.861Z,17.10
2022-09-01T05:53:26.934Z,17.10
2022-09-01T05:54:25.854Z,17.09
2022-09-01T05:55:25.852Z,17.07
2022-09-01T05:56:25.848Z,17.10
2022-09-01T05:57:35.490Z,17.12
2022-09-01T05:58:26.257Z,17.07
2022-09-01T05:59:26.388Z,17.04
2022-09-01T06:00:25.815Z,17.09
2022-09-01T06:01:25.995Z,17.12
2022-09-01T06:02:25.876Z,17.07
2022-09-01T06:03:26.227Z,17.13
2022-09-01T06:04:25.903Z,17.13
2022-09-01T06:05:25.788Z,17.10
2022-09-01T06:06:25.786Z,17.10
2022-09-01T06:07:25.786Z,17.10
2022-09-01T06:08:25.774Z,17.12
2022-09-01T06:09:25.768Z,17.09
2022-09-01T06:10:25.771Z,17.13
2022-09-01T06:11:25.759Z,17.07
2022-09-01T06:12:25.752Z,17.10
2022-09-01T06:13:27.385Z,17.07
2022-09-01T06:14:25.741Z,17.13
2022-09-01T06:15:25.746Z,17.07
2022-09-01T06:16:25.770Z,17.22
2022-09-01T06:17:25.918Z,17.20
2022-09-01T06:18:25.719Z,17.04
2022-09-01T06:19:25.723Z,17.09
2022-09-01T06:20:25.711Z,17.12
2022-09-01T06:21:25.704Z,17.02
2022-09-01T06:22:25.701Z,17.04
2022-09-01T06:23:25.696Z,17.09
2022-09-01T06:24:25.690Z,17.12
2022-09-01T06:25:25.685Z,17.22
2022-09-01T06:26:25.671Z,17.17
2022-09-01T06:27:25.677Z,17.17
2022-09-01T06:28:25.672Z,17.20
2022-09-01T06:29:25.658Z,17.20
2022-09-01T06:30:25.682Z,17.20
2022-09-01T06:31:25.699Z,17.10
2022-09-01T06:32:25.724Z,17.09
2022-09-01T06:33:25.646Z,17.06
2022-09-01T06:34:25.741Z,17.06
2022-09-01T06:35:25.633Z,16.99
2022-09-01T06:36:25.638Z,17.10
2022-09-01T06:37:25.625Z,17.12
2022-09-01T06:38:25.619Z,17.19
2022-09-01T06:39:25.612Z,17.13
2022-09-01T06:40:25.795Z,17.17
2022-09-01T06:41:25.604Z,17.19
2022-09-01T06:42:25.592Z,17.14
2022-09-01T06:43:25.587Z,17.20
2022-09-01T06:44:25.588Z,17.13
2022-09-01T06:45:25.585Z,17.22
2022-09-01T06:46:25.718Z,17.19
2022-09-01T06:47:25.606Z,17.19
2022-09-01T06:48:25.606Z,17.22
2022-09-01T06:49:25.569Z,17.25
2022-09-01T06:51:25.559Z,17.19
2022-09-01T06:52:25.771Z,17.39
2022-09-01T06:53:34.429Z,17.39
2022-09-01T06:54:25.541Z,17.46
2022-09-01T06:55:25.537Z,17.47
2022-09-01T06:56:25.530Z,17.54
2022-09-01T06:58:25.522Z,17.68
2022-09-01T06:59:25.514Z,17.62
2022-09-01T07:00:25.644Z,17.73
2022-09-01T07:01:25.591Z,17.84
2022-09-01T07:03:25.492Z,18.02
2022-09-01T07:04:25.489Z,18.09
2022-09-01T07:08:25.475Z,19.56
2022-09-01T07:10:25.599Z,20.64
2022-09-01T07:12:26.318Z,21.47
2022-09-01T07:13:25.455Z,21.82
2022-09-01T07:14:25.444Z,22.22
2022-09-01T07:16:35.365Z,22.77
2022-09-01T07:17:25.439Z,23.07
2022-09-01T07:18:25.437Z,23.11
2022-09-01T07:19:48.286Z,23.18
2022-09-01T07:21:42.405Z,23.34
2022-09-01T07:23:03.518Z,23.22
2022-09-01T07:23:25.919Z,23.22
2022-09-01T07:24:29.461Z,23.13
2022-09-01T07:25:34.970Z,23.01
2022-09-01T07:26:26.473Z,22.91
2022-09-01T07:27:25.588Z,23.23
2022-09-01T07:28:26.208Z,23.36
2022-09-01T07:29:25.456Z,23.22
2022-09-01T07:30:25.412Z,22.83
2022-09-01T07:34:41.323Z,22.64
2022-09-01T07:35:25.394Z,22.28
2022-09-01T07:36:25.821Z,22.21
2022-09-01T07:42:31.425Z,23.18
2022-09-01T07:42:55.814Z,17.90
2022-09-01T07:42:56.125Z,20.17
2022-09-01T07:43:28.345Z,22.04
2022-09-01T07:44:25.382Z,21.94
2022-09-01T07:45:26.231Z,22.01
2022-09-01T07:46:40.790Z,22.00
2022-09-01T07:49:51.169Z,22.19
2022-09-01T07:50:39.902Z,22.18
2022-09-01T07:51:40.770Z,22.23
2022-09-01T07:52:25.420Z,22.30
2022-09-01T07:53:25.378Z,22.19
2022-09-01T07:54:25.411Z,22.30
2022-09-01T07:55:25.376Z,22.28
2022-09-01T07:56:25.381Z,22.33
2022-09-01T07:57:25.379Z,22.27
2022-09-01T07:58:25.382Z,22.25
2022-09-01T07:59:25.375Z,22.31
2022-09-01T08:00:25.385Z,22.41
2022-09-01T08:01:25.422Z,22.46
2022-09-01T08:02:25.438Z,22.43
2022-09-01T08:03:25.402Z,22.48
2022-09-01T08:04:25.388Z,22.55
2022-09-01T08:05:25.384Z,22.73
2022-09-01T08:06:25.390Z,22.83
2022-09-01T08:07:25.387Z,22.77
2022-09-01T08:08:29.535Z,22.83
2022-09-01T08:09:35.131Z,22.77
2022-09-01T08:10:25.391Z,22.73
2022-09-01T08:11:51.505Z,22.53
2022-09-01T08:12:28.862Z,22.59
2022-09-01T08:13:26.036Z,22.58
2022-09-01T08:14:25.402Z,22.76
2022-09-01T08:16:06.502Z,22.93
2022-09-01T08:16:25.434Z,23.08
2022-09-01T08:18:25.416Z,23.36
2022-09-01T08:19:25.403Z,23.42
2022-09-01T08:20:25.414Z,23.48
2022-09-01T08:21:25.404Z,23.63
2022-09-01T08:22:25.595Z,23.55
2022-09-01T08:23:25.409Z,23.56
2022-09-01T08:24:25.413Z,23.73
2022-09-01T08:25:25.418Z,23.76
2022-09-01T08:26:25.417Z,23.78
2022-09-01T08:27:25.414Z,23.82
2022-09-01T08:28:27.021Z,23.94
2022-09-01T08:29:25.419Z,24.15
2022-09-01T08:30:25.423Z,24.29
2022-09-01T08:31:26.176Z,24.37
2022-09-01T08:32:25.425Z,24.36
2022-09-01T08:33:25.431Z,24.43
2022-09-01T08:34:25.444Z,24.40
2022-09-01T08:35:25.437Z,24.55
2022-09-01T08:36:26.063Z,24.47
2022-09-01T08:37:25.445Z,24.43
2022-09-01T08:38:25.447Z,24.40
2022-09-01T08:39:25.451Z,24.51
2022-09-01T08:40:25.508Z,24.62
2022-09-01T08:41:28.690Z,24.89
2022-09-01T08:42:25.460Z,24.85
2022-09-01T08:43:25.468Z,24.89
2022-09-01T08:44:25.474Z,25.08
2022-09-01T08:45:25.475Z,25.28
2022-09-01T08:46:25.525Z,25.41
2022-09-01T08:47:35.415Z,25.38
2022-09-01T08:49:26.857Z,25.45
2022-09-01T08:50:25.493Z,25.64
2022-09-01T08:51:25.487Z,25.77
2022-09-01T08:52:25.725Z,25.90
2022-09-01T08:53:25.501Z,26.07
2022-09-01T08:54:29.699Z,26.12
2022-09-01T08:55:25.511Z,25.95
2022-09-01T08:56:25.515Z,26.00
2022-09-01T08:57:25.521Z,25.88
2022-09-01T08:58:25.534Z,25.95
2022-09-01T08:59:25.527Z,26.05
2022-09-01T09:00:25.555Z,26.05
2022-09-01T09:01:25.598Z,26.10
2022-09-01T09:02:26.131Z,26.21
2022-09-01T09:03:25.552Z,26.28
2022-09-01T09:04:25.555Z,26.19
2022-09-01T09:05:25.557Z,26.05
2022-09-01T09:06:25.560Z,26.21
2022-09-01T09:07:25.569Z,26.38
2022-09-01T09:08:26.613Z,26.49
2022-09-01T09:09:32.280Z,26.49
2022-09-01T09:10:25.583Z,26.36
2022-09-01T09:11:25.591Z,26.21
2022-09-01T09:12:25.597Z,26.19
2022-09-01T09:13:25.607Z,26.10
2022-09-01T09:14:25.605Z,26.31
2022-09-01T09:15:25.710Z,26.42
2022-09-01T09:16:25.658Z,26.33
2022-09-01T09:17:25.615Z,26.45
2022-09-01T09:18:39.151Z,26.56
2022-09-01T09:19:25.630Z,26.34
2022-09-01T09:20:25.639Z,26.34
2022-09-01T09:21:25.643Z,26.53
2022-09-01T09:22:25.668Z,26.52
2022-09-01T09:23:25.904Z,26.73
2022-09-01T09:24:25.661Z,26.71
2022-09-01T09:25:25.672Z,26.89
2022-09-01T09:26:25.672Z,27.07
2022-09-01T09:27:26.860Z,27.26
2022-09-01T09:28:25.775Z,27.27
2022-09-01T09:29:25.691Z,27.22
2022-09-01T09:30:26.532Z,27.22
2022-09-01T09:31:25.747Z,26.83
2022-09-01T09:32:44.387Z,26.70
2022-09-01T09:33:47.844Z,26.71
2022-09-01T09:34:25.725Z,26.95
2022-09-01T09:35:25.747Z,27.07
2022-09-01T09:36:25.814Z,27.22
2022-09-01T09:37:25.941Z,27.44
2022-09-01T09:38:25.750Z,27.54
2022-09-01T09:39:25.748Z,27.63
2022-09-01T09:40:25.796Z,27.60
2022-09-01T09:41:27.185Z,27.58
2022-09-01T09:42:29.844Z,27.57
2022-09-01T09:43:25.775Z,27.73
2022-09-01T09:44:25.787Z,27.72
2022-09-01T09:45:25.792Z,27.78
2022-09-01T09:46:25.902Z,27.76
2022-09-01T09:47:42.774Z,27.47
2022-09-01T09:48:25.811Z,27.68
2022-09-01T09:49:34.727Z,27.78
2022-09-01T09:50:25.823Z,27.94
2022-09-01T09:51:28.939Z,28.03
2022-09-01T09:52:25.844Z,28.09
2022-09-01T09:53:25.845Z,28.24
2022-09-01T09:54:26.361Z,28.56
2022-09-01T09:55:25.856Z,28.84
2022-09-01T09:56:25.866Z,28.69
2022-09-01T09:57:25.871Z,28.69
2022-09-01T09:58:25.953Z,28.91
2022-09-01T09:59:53.102Z,29.04
2022-09-01T10:00:26.110Z,29.10
2022-09-01T10:01:25.993Z,28.94
2022-09-01T10:02:27.961Z,29.03
2022-09-01T10:03:29.155Z,28.96
2022-09-01T10:04:25.943Z,28.79
2022-09-01T10:05:25.927Z,28.87
2022-09-01T10:06:25.938Z,28.87
2022-09-01T10:07:25.942Z,28.77
2022-09-01T10:08:25.951Z,28.79
2022-09-01T10:09:25.958Z,28.57
2022-09-01T10:10:25.970Z,28.57
2022-09-01T10:11:28.973Z,28.57
2022-09-01T10:12:25.979Z,28.53
2022-09-01T10:13:26.937Z,28.81
2022-09-01T10:14:47.526Z,28.49
2022-09-01T10:15:26.002Z,28.07
2022-09-01T10:16:27.803Z,27.82
2022-09-01T10:17:26.221Z,28.07
2022-09-01T10:18:29.632Z,28.31
2022-09-01T10:19:26.035Z,28.65
2022-09-01T10:20:26.044Z,28.81
2022-09-01T10:21:26.051Z,29.06
2022-09-01T10:22:26.056Z,29.04
2022-09-01T10:23:27.231Z,29.02
2022-09-01T10:24:30.464Z,29.00
2022-09-01T10:25:26.335Z,29.07
2022-09-01T10:26:26.082Z,28.96
2022-09-01T10:27:26.100Z,29.02
2022-09-01T10:28:26.377Z,28.84
2022-09-01T10:29:26.111Z,28.56
2022-09-01T10:30:26.185Z,28.40
2022-09-01T10:31:32.123Z,28.57
2022-09-01T10:32:36.839Z,28.43
2022-09-01T10:33:26.140Z,28.34
2022-09-01T10:34:26.146Z,28.05
2022-09-01T10:35:26.148Z,27.94
2022-09-01T10:36:26.159Z,27.58
2022-09-01T10:37:27.666Z,27.32
2022-09-01T10:38:26.171Z,27.15
2022-09-01T10:39:28.624Z,26.75
2022-09-01T10:40:31.165Z,26.75
2022-09-01T10:41:26.218Z,26.70
2022-09-01T10:42:26.198Z,26.70
2022-09-01T10:43:26.205Z,26.63
2022-09-01T10:44:26.602Z,26.41
2022-09-01T10:45:26.628Z,26.36
2022-09-01T10:46:26.721Z,26.36
2022-09-01T10:47:26.221Z,26.08
2022-09-01T10:48:36.631Z,26.03
2022-09-01T10:49:27.783Z,26.08
2022-09-01T10:50:26.234Z,26.07
2022-09-01T10:51:28.874Z,26.20
2022-09-01T10:52:28.565Z,26.23
2022-09-01T10:53:26.848Z,26.26
2022-09-01T10:54:26.677Z,26.03
2022-09-01T10:55:26.257Z,25.98
2022-09-01T10:56:35.507Z,26.07
2022-09-01T10:57:27.066Z,25.92
2022-09-01T10:59:38.784Z,25.90
2022-09-01T11:00:41.885Z,25.93
2022-09-01T11:01:47.977Z,25.85
2022-09-01T11:02:28.040Z,25.90
2022-09-01T11:03:30.584Z,25.92
2022-09-01T11:04:26.362Z,25.59
2022-09-01T11:05:28.981Z,25.52
2022-09-01T11:06:33.166Z,25.52
2022-09-01T11:07:50.222Z,25.74
2022-09-01T11:08:26.444Z,26.05
2022-09-01T11:09:26.301Z,26.16
2022-09-01T11:10:34.195Z,26.12
2022-09-01T11:11:26.308Z,26.04
2022-09-01T11:12:29.791Z,25.96
2022-09-01T11:13:26.332Z,25.98
2022-09-01T11:14:26.313Z,25.86
2022-09-01T11:15:26.797Z,25.74
2022-09-01T11:17:26.396Z,26.34
2022-09-01T11:18:26.328Z,26.57
2022-09-01T11:19:26.329Z,26.88
2022-09-01T11:20:26.329Z,27.17
2022-09-01T11:21:26.332Z,27.47
2022-09-01T11:22:26.736Z,27.70
2022-09-01T11:23:27.681Z,27.83
2022-09-01T11:24:27.340Z,27.75
2022-09-01T11:25:26.691Z,27.53
2022-09-01T11:26:26.352Z,27.44
2022-09-01T11:27:26.355Z,27.15
2022-09-01T11:28:26.382Z,26.93
2022-09-01T11:29:26.364Z,26.82
2022-09-01T11:30:26.375Z,26.76
2022-09-01T11:31:26.432Z,26.36
2022-09-01T11:32:26.380Z,26.34
2022-09-01T11:33:26.405Z,26.36
2022-09-01T11:34:26.382Z,26.30
2022-09-01T11:35:26.383Z,26.36
2022-09-01T11:36:26.395Z,26.41
2022-09-01T11:37:27.801Z,26.36
2022-09-01T11:38:26.402Z,26.57
2022-09-01T11:39:26.402Z,26.61
2022-09-01T11:40:26.496Z,26.67
2022-09-01T11:41:26.410Z,26.58
2022-09-01T11:42:26.415Z,26.52
2022-09-01T11:43:26.415Z,26.51
2022-09-01T11:44:26.419Z,26.36
2022-09-01T11:45:26.425Z,26.36
2022-09-01T11:46:26.427Z,26.20
2022-09-01T11:47:26.424Z,26.20
2022-09-01T11:48:26.435Z,26.11
2022-09-01T11:49:26.439Z,25.86
2022-09-01T11:50:26.442Z,25.86
2022-09-01T11:51:26.451Z,25.67
2022-09-01T11:52:26.449Z,25.85
2022-09-01T11:53:26.466Z,26.04
2022-09-01T11:54:26.449Z,26.28
2022-09-01T11:55:26.448Z,26.34
2022-09-01T11:56:26.455Z,26.51
2022-09-01T11:57:26.460Z,26.56
2022-09-01T11:58:26.456Z,26.70
2022-09-01T11:59:26.469Z,26.63
2022-09-01T12:00:26.463Z,26.70
2022-09-01T12:01:26.477Z,26.64
2022-09-01T12:02:26.556Z,26.49
2022-09-01T12:03:26.833Z,26.60
2022-09-01T12:04:26.481Z,26.46
2022-09-01T12:05:26.477Z,26.49
2022-09-01T12:06:26.482Z,26.60
2022-09-01T12:07:26.491Z,26.76
2022-09-01T12:08:26.482Z,26.85
2022-09-01T12:09:26.483Z,27.00
2022-09-01T12:10:26.492Z,27.07
2022-09-01T12:11:26.489Z,27.15
2022-09-01T12:12:26.489Z,27.03
2022-09-01T12:13:26.493Z,27.03
2022-09-01T12:14:26.494Z,26.90
2022-09-01T12:15:26.521Z,26.95
2022-09-01T12:16:26.594Z,27.05
2022-09-01T12:17:26.502Z,27.05
2022-09-01T12:18:26.501Z,26.86
2022-09-01T12:19:26.512Z,26.82
2022-09-01T12:20:29.181Z,26.83
2022-09-01T12:21:26.511Z,26.70
2022-09-01T12:22:26.515Z,26.71
2022-09-01T12:23:26.518Z,26.76
2022-09-01T12:24:26.513Z,26.88
2022-09-01T12:25:26.516Z,26.85
2022-09-01T12:26:26.530Z,26.85
2022-09-01T12:27:26.582Z,26.73
2022-09-01T12:28:26.528Z,26.57
2022-09-01T12:29:31.439Z,26.36
2022-09-01T12:30:26.525Z,26.57
2022-09-01T12:31:26.582Z,26.51
2022-09-01T12:32:26.537Z,26.60
2022-09-01T12:33:26.532Z,26.45
2022-09-01T12:34:26.533Z,26.38
2022-09-01T12:35:26.540Z,26.30
2022-09-01T12:36:26.541Z,26.30
2022-09-01T12:37:26.536Z,26.27
2022-09-01T12:38:26.537Z,26.27
2022-09-01T12:39:26.543Z,26.19
2022-09-01T12:40:26.558Z,26.07
2022-09-01T12:41:28.701Z,25.96
2022-09-01T12:42:26.548Z,25.89
2022-09-01T12:43:26.550Z,25.95
2022-09-01T12:44:26.554Z,25.92
2022-09-01T12:45:26.583Z,25.90
2022-09-01T12:46:26.554Z,25.93
2022-09-01T12:47:26.936Z,25.92
2022-09-01T12:48:26.553Z,25.86
2022-09-01T12:49:28.814Z,25.85
2022-09-01T12:50:26.561Z,25.95
2022-09-01T12:51:30.880Z,25.89
2022-09-01T12:52:26.655Z,25.96
2022-09-01T12:53:26.561Z,26.00
2022-09-01T12:54:26.560Z,25.95
2022-09-01T12:56:26.562Z,25.96
2022-09-01T12:57:26.563Z,26.05
2022-09-01T12:58:26.567Z,26.04
2022-09-01T12:59:35.878Z,26.01
2022-09-01T13:00:26.569Z,26.08
2022-09-01T13:01:26.629Z,26.03
2022-09-01T13:02:26.782Z,26.16
2022-09-01T13:03:26.570Z,26.24
2022-09-01T13:04:26.574Z,26.05
2022-09-01T13:05:31.165Z,26.04
2022-09-01T13:06:26.572Z,25.78
2022-09-01T13:07:26.577Z,25.90
2022-09-01T13:08:27.074Z,25.92
2022-09-01T13:09:26.571Z,25.77
2022-09-01T13:10:26.578Z,25.73
2022-09-01T13:12:04.546Z,25.85
2022-09-01T13:12:26.580Z,25.86
2022-09-01T13:13:26.580Z,26.03
2022-09-01T13:14:26.583Z,26.05
2022-09-01T13:15:26.585Z,26.11